Texas Enterprise — KSDF — position and weather

sailwx.info

Track history (hours):
 
Tides and Currents Weather Stations Pressure Air Temp Water Temp Dewpoint Dewpoint Depression Visibility Wind Speed Wind Dir Waves Ship Positions

Texas Enterprise

Owner: U.S. United Ocean Services, LLC, Tampa, FL. More information available from US FCC via Universal Licensing System and Coast Guard Vessel Documentation Center.

Last reported at 2015-Jan-24 02:30 UTC. Time now 2015-Jan-26 14:29 UTC.
Position N 29°28' W 094°51'.

Type: Cargo ship. MMSI: 366163000.

Date/timePositionNaut miles runAvg speedWind from/ knotsBaromVisibWave heightAir tempDewpointWater temp
2015-Jan-24 02:30N 29°28' W 094°51'1010.2
2015-Jan-24 01:33N 29°36' W 094°57'9 8.6
2015-Jan-24 00:34N 29°43' W 095°01'6 6.0
2015-Jan-23 23:33N 29°44' W 095°08'0 0.3
2015-Jan-23 22:23N 29°44' W 095°09'0 0.0
2015-Jan-23 20:23N 29°44' W 095°09'0 0.0
2015-Jan-23 19:32N 29°44' W 095°09'0 0.0
2015-Jan-23 18:26N 29°44' W 095°09'0 0.0
2015-Jan-23 17:17N 29°44' W 095°09'0 0.0
2015-Jan-23 16:32N 29°44' W 095°09'0 0.0
2015-Jan-23 15:32N 29°44' W 095°09'0 0.0
2015-Jan-23 14:32N 29°44' W 095°09'0 0.0
2015-Jan-22 23:20N 29°44' W 095°09'0 0.0
2015-Jan-22 22:32N 29°44' W 095°09'0 0.0
2015-Jan-22 21:32N 29°44' W 095°09'0 0.0
2015-Jan-22 20:32N 29°44' W 095°09'0 0.0
2015-Jan-22 19:29N 29°44' W 095°09'0 0.0
2015-Jan-22 18:32N 29°44' W 095°09'0 0.0
2015-Jan-22 17:32N 29°44' W 095°09'0 0.0
2015-Jan-22 16:29N 29°44' W 095°09'0 0.0
2015-Jan-22 15:32N 29°44' W 095°09'0 0.0
2015-Jan-22 14:32N 29°44' W 095°09'0 0.1
2015-Jan-22 13:33N 29°44' W 095°09'4 3.8
2015-Jan-22 12:33N 29°46' W 095°05'8 7.5
2015-Jan-22 11:33N 29°40' W 094°59'1414.0
2015-Jan-22 10:33N 29°28' W 094°51'20 1.7
2015-Jan-21 22:31N 29°18' W 094°31'14 0.8
2015-Jan-21 04:22N 29°08' W 094°20'  
2015-Jan-18 11:09N 25°34' W 080°02'814.0
2015-Jan-18 10:33N 25°42' W 080°01'1413.5
2015-Jan-18 09:33N 25°56' W 080°00'1313.4
2015-Jan-18 08:33N 26°09' W 079°59'1212.4
2015-Jan-18 07:33N 26°21' W 079°57'1211.9
2015-Jan-18 06:33N 26°33' W 079°57'1312.6
2015-Jan-18 05:33N 26°46' W 079°56'1212.0
2015-Jan-18 04:33N 26°58' W 079°55'1211.6
2015-Jan-18 03:32N 27°10' W 079°56'  
Track history (hours):
 
Tides and Currents Weather Stations Pressure Air Temp Water Temp Dewpoint Dewpoint Depression Visibility Wind Speed Wind Dir Waves Ship Positions

Texas Enterprise

Owner: U.S. United Ocean Services, LLC, Tampa, FL. More information available from US FCC via Universal Licensing System and Coast Guard Vessel Documentation Center.

Last reported at 2015-Jan-24 02:30 UTC. Time now 2015-Jan-26 14:29 UTC.
Position N 29°28' W 094°51'.

Type: Cargo ship. MMSI: 366163000.

Date/timePositionNaut miles runAvg speedWind from/ knotsBaromVisibWave heightAir tempDewpointWater temp
2015-Jan-24 02:30N 29°28' W 094°51'1010.2
2015-Jan-24 01:33N 29°36' W 094°57'9 8.6
2015-Jan-24 00:34N 29°43' W 095°01'6 6.0
2015-Jan-23 23:33N 29°44' W 095°08'0 0.3
2015-Jan-23 22:23N 29°44' W 095°09'0 0.0
2015-Jan-23 20:23N 29°44' W 095°09'0 0.0
2015-Jan-23 19:32N 29°44' W 095°09'0 0.0
2015-Jan-23 18:26N 29°44' W 095°09'0 0.0
2015-Jan-23 17:17N 29°44' W 095°09'0 0.0
2015-Jan-23 16:32N 29°44' W 095°09'0 0.0
2015-Jan-23 15:32N 29°44' W 095°09'0 0.0
2015-Jan-23 14:32N 29°44' W 095°09'0 0.0
2015-Jan-22 23:20N 29°44' W 095°09'0 0.0
2015-Jan-22 22:32N 29°44' W 095°09'0 0.0
2015-Jan-22 21:32N 29°44' W 095°09'0 0.0
2015-Jan-22 20:32N 29°44' W 095°09'0 0.0
2015-Jan-22 19:29N 29°44' W 095°09'0 0.0
2015-Jan-22 18:32N 29°44' W 095°09'0 0.0
2015-Jan-22 17:32N 29°44' W 095°09'0 0.0
2015-Jan-22 16:29N 29°44' W 095°09'0 0.0
2015-Jan-22 15:32N 29°44' W 095°09'0 0.0
2015-Jan-22 14:32N 29°44' W 095°09'0 0.1
2015-Jan-22 13:33N 29°44' W 095°09'4 3.8
2015-Jan-22 12:33N 29°46' W 095°05'8 7.5
2015-Jan-22 11:33N 29°40' W 094°59'1414.0
2015-Jan-22 10:33N 29°28' W 094°51'20 1.7
2015-Jan-21 22:31N 29°18' W 094°31'14 0.8
2015-Jan-21 04:22N 29°08' W 094°20'  
2015-Jan-18 11:09N 25°34' W 080°02'814.0
2015-Jan-18 10:33N 25°42' W 080°01'1413.5
2015-Jan-18 09:33N 25°56' W 080°00'1313.4
2015-Jan-18 08:33N 26°09' W 079°59'1212.4
2015-Jan-18 07:33N 26°21' W 079°57'1211.9
2015-Jan-18 06:33N 26°33' W 079°57'1312.6
2015-Jan-18 05:33N 26°46' W 079°56'1212.0
2015-Jan-18 04:33N 26°58' W 079°55'1211.6
2015-Jan-18 03:32N 27°10' W 079°56'  

Dump ship's entire track history